Terminal Aerodrome Forecast
Issued by NWS

Home | Current Version | Previous Version | Graphics & Text | Print | Product List | Glossary On
Versions: 1 2 3 4 5 6 7 8 9 10 11 12 13
370
FTUS43 KGRB 301720
TAFAUW
TAF
KAUW 301720Z 3018/0118 08015G24KT P6SM SCT090 BKN250
     FM302200 06012G18KT P6SM VCSH SCT035 BKN060
     FM010200 06009KT P6SM -SHRA BKN035 WS010/06025KT
     FM010900 01008KT 6SM -RA BKN025
     FM011300 05011G18KT P6SM BKN035=

USA.gov is the U.S. government's official web portal to all federal, state and local government web resources and services.